createdAt,value
2022-10-20T00:00:11.063Z,99701.53
2022-10-20T00:01:11.063Z,99693.12
2022-10-20T00:02:11.077Z,99689.73
2022-10-20T00:03:11.063Z,99688.84
2022-10-20T00:04:11.061Z,99688.83
2022-10-20T00:05:11.063Z,99684.77
2022-10-20T00:06:15.073Z,99687.57
2022-10-20T00:07:11.064Z,99688.13
2022-10-20T00:08:11.062Z,99687.20
2022-10-20T00:09:11.166Z,99688.45
2022-10-20T00:10:11.065Z,99693.93
2022-10-20T00:11:11.061Z,99690.72
2022-10-20T00:12:11.063Z,99693.62
2022-10-20T00:13:11.066Z,99699.49
2022-10-20T00:14:11.062Z,99690.37
2022-10-20T00:15:11.066Z,99688.41
2022-10-20T00:16:11.072Z,99683.86
2022-10-20T00:17:11.063Z,99682.31
2022-10-20T00:18:11.064Z,99685.05
2022-10-20T00:19:11.062Z,99681.55
2022-10-20T00:20:11.126Z,99682.21
2022-10-20T00:21:12.058Z,99681.05
2022-10-20T00:22:11.058Z,99678.73
2022-10-20T00:23:11.065Z,99674.68
2022-10-20T00:24:11.059Z,99670.85
2022-10-20T00:25:11.064Z,99664.29
2022-10-20T00:26:12.065Z,99665.73
2022-10-20T00:27:11.058Z,99668.14
2022-10-20T00:28:11.054Z,99663.25
2022-10-20T00:29:11.115Z,99663.75
2022-10-20T00:30:11.060Z,99663.79
2022-10-20T00:31:11.058Z,99666.48
2022-10-20T00:32:11.058Z,99663.49
2022-10-20T00:33:11.060Z,99667.70
2022-10-20T00:34:11.057Z,99664.85
2022-10-20T00:35:11.059Z,99665.44
2022-10-20T00:36:13.065Z,99665.26
2022-10-20T00:37:11.062Z,99660.39
2022-10-20T00:38:11.118Z,99655.80
2022-10-20T00:39:11.063Z,99657.86
2022-10-20T00:40:11.060Z,99659.53
2022-10-20T00:41:12.056Z,99660.13
2022-10-20T00:42:16.062Z,99654.81
2022-10-20T00:43:15.061Z,99657.98
2022-10-20T00:44:19.058Z,99659.30
2022-10-20T00:45:18.062Z,99665.18
2022-10-20T00:46:11.060Z,99658.70
2022-10-20T00:47:14.061Z,99655.42
2022-10-20T00:48:15.060Z,99655.67
2022-10-20T00:49:19.059Z,99651.64
2022-10-20T00:50:17.072Z,99652.50
2022-10-20T00:51:12.061Z,99649.42
2022-10-20T00:52:11.060Z,99652.83
2022-10-20T00:53:11.062Z,99658.17
2022-10-20T00:54:14.062Z,99663.63
2022-10-20T00:55:11.065Z,99659.68
2022-10-20T00:56:11.060Z,99663.65
2022-10-20T00:57:11.065Z,99661.21
2022-10-20T00:58:11.059Z,99662.01
2022-10-20T00:59:12.063Z,99664.02
2022-10-20T01:00:11.069Z,99663.98
2022-10-20T01:01:11.115Z,99656.66
2022-10-20T01:02:11.058Z,99655.66
2022-10-20T01:03:14.071Z,99657.83
2022-10-20T01:04:11.064Z,99654.27
2022-10-20T01:05:11.060Z,99652.22
2022-10-20T01:06:11.085Z,99650.55
2022-10-20T01:07:11.064Z,99648.59
2022-10-20T01:08:11.062Z,99646.60
2022-10-20T01:09:11.142Z,99645.24
2022-10-20T01:10:11.074Z,99644.94
2022-10-20T01:11:19.062Z,99643.70
2022-10-20T01:12:19.066Z,99642.69
2022-10-20T01:13:19.065Z,99642.43
2022-10-20T01:14:19.076Z,99648.26
2022-10-20T01:15:19.120Z,99647.46
2022-10-20T01:16:19.064Z,99649.93
2022-10-20T01:17:22.065Z,99651.20
2022-10-20T01:18:21.067Z,99646.76
2022-10-20T01:19:19.073Z,99643.17
2022-10-20T01:20:19.067Z,99642.18
2022-10-20T01:21:19.056Z,99646.09
2022-10-20T01:22:18.053Z,99647.10
2022-10-20T01:23:19.058Z,99647.50
2022-10-20T01:24:22.093Z,99643.22
2022-10-20T01:25:21.061Z,99646.35
2022-10-20T01:26:19.062Z,99644.95
2022-10-20T01:27:22.057Z,99642.75
2022-10-20T01:28:19.054Z,99647.29
2022-10-20T01:29:22.059Z,99647.44
2022-10-20T01:30:16.065Z,99644.88
2022-10-20T01:31:19.061Z,99645.98
2022-10-20T01:32:19.056Z,99645.96
2022-10-20T01:33:22.106Z,99642.45
2022-10-20T01:34:17.059Z,99643.76
2022-10-20T01:35:17.068Z,99640.25
2022-10-20T01:36:25.061Z,99639.31
2022-10-20T01:37:34.133Z,99640.80
2022-10-20T01:38:21.104Z,99642.91
2022-10-20T01:39:15.058Z,99638.99
2022-10-20T01:40:22.063Z,99637.29
2022-10-20T01:41:18.067Z,99637.77
2022-10-20T01:42:19.062Z,99634.09
2022-10-20T01:43:13.066Z,99638.37
2022-10-20T01:44:11.059Z,99632.66
2022-10-20T01:45:12.065Z,99631.59
2022-10-20T01:46:11.063Z,99632.14
2022-10-20T01:47:11.058Z,99634.17
2022-10-20T01:48:11.061Z,99629.99
2022-10-20T01:49:11.068Z,99628.57
2022-10-20T01:50:11.060Z,99629.59
2022-10-20T01:51:11.062Z,99633.39
2022-10-20T01:52:11.070Z,99636.99
2022-10-20T01:53:11.064Z,99633.66
2022-10-20T01:54:19.063Z,99629.65
2022-10-20T01:55:17.062Z,99623.78
2022-10-20T01:56:19.062Z,99625.57
2022-10-20T01:57:22.061Z,99626.75
2022-10-20T01:58:19.061Z,99624.36
2022-10-20T01:59:19.065Z,99623.43
2022-10-20T02:00:16.081Z,99627.84
2022-10-20T02:01:22.093Z,99625.56
2022-10-20T02:02:19.061Z,99623.98
2022-10-20T02:03:22.058Z,99621.57
2022-10-20T02:04:11.059Z,99618.32
2022-10-20T02:05:19.070Z,99620.16
2022-10-20T02:06:19.065Z,99616.55
2022-10-20T02:07:16.061Z,99614.62
2022-10-20T02:08:19.067Z,99612.80
2022-10-20T02:09:21.063Z,99615.22
2022-10-20T02:10:20.078Z,99616.65
2022-10-20T02:11:18.066Z,99616.78
2022-10-20T02:12:19.064Z,99615.62
2022-10-20T02:13:11.062Z,99616.17
2022-10-20T02:14:12.063Z,99612.72
2022-10-20T02:15:13.068Z,99610.04
2022-10-20T02:16:15.063Z,99614.23
2022-10-20T02:17:13.067Z,99607.02
2022-10-20T02:18:12.068Z,99603.27
2022-10-20T02:19:11.065Z,99600.58
2022-10-20T02:20:11.060Z,99596.24
2022-10-20T02:21:11.060Z,99592.80
2022-10-20T02:22:11.058Z,99592.54
2022-10-20T02:23:11.057Z,99589.56
2022-10-20T02:24:11.058Z,99590.87
2022-10-20T02:25:12.062Z,99591.89
2022-10-20T02:26:13.057Z,99588.84
2022-10-20T02:27:19.058Z,99583.95
2022-10-20T02:28:12.061Z,99585.39
2022-10-20T02:29:18.064Z,99579.62
2022-10-20T02:30:13.058Z,99583.07
2022-10-20T02:31:11.060Z,99580.70
2022-10-20T02:32:11.067Z,99584.15
2022-10-20T02:33:11.061Z,99584.38
2022-10-20T02:34:11.055Z,99582.63
2022-10-20T02:35:14.063Z,99586.79
2022-10-20T02:36:16.063Z,99586.78
2022-10-20T02:37:11.137Z,99584.57
2022-10-20T02:38:11.061Z,99581.15
2022-10-20T02:39:11.068Z,99580.19
2022-10-20T02:40:11.060Z,99580.39
2022-10-20T02:41:11.061Z,99577.91
2022-10-20T02:42:11.069Z,99576.70
2022-10-20T02:43:11.061Z,99579.03
2022-10-20T02:44:11.064Z,99579.67
2022-10-20T02:45:11.086Z,99585.84
2022-10-20T02:46:11.083Z,99586.04
2022-10-20T02:47:11.065Z,99583.68
2022-10-20T02:48:11.064Z,99586.38
2022-10-20T02:49:11.061Z,99584.23
2022-10-20T02:50:11.059Z,99585.30
2022-10-20T02:51:11.063Z,99587.53
2022-10-20T02:52:11.061Z,99583.62
2022-10-20T02:53:11.060Z,99583.86
2022-10-20T02:54:11.064Z,99584.33
2022-10-20T02:55:11.162Z,99582.79
2022-10-20T02:56:11.062Z,99577.02
2022-10-20T02:57:11.063Z,99575.42
2022-10-20T02:58:11.064Z,99577.53
2022-10-20T02:59:14.060Z,99580.64
2022-10-20T03:00:11.065Z,99577.31
2022-10-20T03:01:11.069Z,99578.60
2022-10-20T03:02:11.064Z,99580.98
2022-10-20T03:03:11.060Z,99581.36
2022-10-20T03:04:11.065Z,99581.63
2022-10-20T03:05:11.064Z,99585.77
2022-10-20T03:06:14.060Z,99586.26
2022-10-20T03:07:12.066Z,99587.11
2022-10-20T03:08:11.065Z,99583.92
2022-10-20T03:09:11.061Z,99585.21
2022-10-20T03:10:11.068Z,99578.45
2022-10-20T03:11:11.065Z,99574.37
2022-10-20T03:12:11.071Z,99569.83
2022-10-20T03:13:11.064Z,99566.87
2022-10-20T03:14:11.065Z,99564.92
2022-10-20T03:15:11.064Z,99569.85
2022-10-20T03:16:11.063Z,99569.26
2022-10-20T03:17:11.067Z,99573.24
2022-10-20T03:18:11.064Z,99575.02
2022-10-20T03:19:11.985Z,99578.80
2022-10-20T03:20:11.078Z,99581.02
2022-10-20T03:21:11.052Z,99577.17
2022-10-20T03:22:11.054Z,99577.74
2022-10-20T03:23:11.894Z,99577.73
2022-10-20T03:24:11.053Z,99571.35
2022-10-20T03:25:11.053Z,99570.39
2022-10-20T03:26:11.061Z,99568.92
2022-10-20T03:27:11.052Z,99564.60
2022-10-20T03:28:11.058Z,99561.76
2022-10-20T03:29:11.063Z,99559.59
2022-10-20T03:30:11.052Z,99555.53
2022-10-20T03:31:11.057Z,99552.73
2022-10-20T03:32:11.060Z,99550.79
2022-10-20T03:33:11.056Z,99548.58
2022-10-20T03:34:11.058Z,99548.00
2022-10-20T03:35:11.058Z,99546.84
2022-10-20T03:36:11.056Z,99545.51
2022-10-20T03:37:11.054Z,99547.04
2022-10-20T03:38:11.055Z,99546.45
2022-10-20T03:39:11.060Z,99543.61
2022-10-20T03:40:11.059Z,99543.65
2022-10-20T03:41:11.058Z,99545.30
2022-10-20T03:42:11.058Z,99543.08
2022-10-20T03:43:11.057Z,99541.59
2022-10-20T03:44:11.057Z,99539.39
2022-10-20T03:45:13.746Z,99540.52
2022-10-20T03:46:13.881Z,99531.75
2022-10-20T03:47:11.055Z,99533.70
2022-10-20T03:48:11.061Z,99529.57
2022-10-20T03:49:11.059Z,99527.62
2022-10-20T03:50:11.061Z,99530.92
2022-10-20T03:51:11.059Z,99524.14
2022-10-20T03:52:11.059Z,99525.71
2022-10-20T03:53:12.060Z,99521.74
2022-10-20T03:54:11.059Z,99520.54
2022-10-20T03:55:11.065Z,99521.35
2022-10-20T03:56:16.058Z,99518.11
2022-10-20T03:57:11.057Z,99518.32
2022-10-20T03:58:11.056Z,99516.29
2022-10-20T03:59:11.061Z,99513.98
2022-10-20T04:00:11.057Z,99513.20
2022-10-20T04:01:14.113Z,99513.34
2022-10-20T04:02:15.062Z,99512.20
2022-10-20T04:03:11.058Z,99514.89
2022-10-20T04:04:11.055Z,99506.69
2022-10-20T04:05:14.073Z,99509.32
2022-10-20T04:06:11.059Z,99512.74
2022-10-20T04:07:11.058Z,99508.22
2022-10-20T04:08:11.127Z,99500.80
2022-10-20T04:09:11.117Z,99505.94
2022-10-20T04:10:11.056Z,99503.84
2022-10-20T04:11:11.063Z,99498.00
2022-10-20T04:12:11.061Z,99496.37
2022-10-20T04:13:11.065Z,99492.51
2022-10-20T04:14:11.063Z,99487.50
2022-10-20T04:15:11.077Z,99482.67
2022-10-20T04:16:11.066Z,99485.69
2022-10-20T04:17:11.057Z,99484.27
2022-10-20T04:18:11.065Z,99483.78
2022-10-20T04:19:11.059Z,99481.80
2022-10-20T04:20:11.065Z,99486.84
2022-10-20T04:21:11.060Z,99488.55
2022-10-20T04:22:11.063Z,99485.88
2022-10-20T04:23:11.061Z,99485.59
2022-10-20T04:24:11.063Z,99483.98
2022-10-20T04:25:11.071Z,99482.62
2022-10-20T04:26:11.060Z,99481.10
2022-10-20T04:27:11.061Z,99479.20
2022-10-20T04:28:11.068Z,99474.53
2022-10-20T04:29:11.060Z,99473.90
2022-10-20T04:30:11.066Z,99473.83
2022-10-20T04:31:11.069Z,99470.55
2022-10-20T04:32:11.066Z,99463.75
2022-10-20T04:33:11.058Z,99462.31
2022-10-20T04:34:11.064Z,99464.11
2022-10-20T04:35:11.063Z,99465.35
2022-10-20T04:36:13.066Z,99470.02
2022-10-20T04:37:11.068Z,99475.72
2022-10-20T04:38:11.071Z,99478.31
2022-10-20T04:39:11.065Z,99477.53
2022-10-20T04:40:11.067Z,99481.05
2022-10-20T04:41:11.075Z,99481.37
2022-10-20T04:42:11.060Z,99476.16
2022-10-20T04:43:11.060Z,99480.20
2022-10-20T04:44:11.067Z,99474.47
2022-10-20T04:45:11.070Z,99471.04
2022-10-20T04:46:11.062Z,99466.91
2022-10-20T04:47:11.067Z,99461.73
2022-10-20T04:48:11.069Z,99459.21
2022-10-20T04:49:11.066Z,99461.19
2022-10-20T04:50:11.063Z,99463.10
2022-10-20T04:51:11.066Z,99464.32
2022-10-20T04:52:11.066Z,99464.89
2022-10-20T04:53:11.065Z,99460.46
2022-10-20T04:54:11.067Z,99460.23
2022-10-20T04:55:11.063Z,99459.60
2022-10-20T04:56:12.065Z,99461.13
2022-10-20T04:57:11.066Z,99456.85
2022-10-20T04:58:11.065Z,99457.64
2022-10-20T04:59:13.520Z,99452.64
2022-10-20T05:00:11.073Z,99451.48
2022-10-20T05:01:11.209Z,99450.19
2022-10-20T05:02:11.068Z,99446.31
2022-10-20T05:04:11.070Z,99448.15
2022-10-20T05:05:11.064Z,99446.59
2022-10-20T05:06:21.074Z,99450.48
2022-10-20T05:07:11.075Z,99455.35
2022-10-20T05:08:11.068Z,99452.79
2022-10-20T05:09:11.132Z,99451.95
2022-10-20T05:10:11.075Z,99451.84
2022-10-20T05:11:11.070Z,99457.27
2022-10-20T05:12:11.103Z,99459.59
2022-10-20T05:13:11.071Z,99459.57
2022-10-20T05:14:11.068Z,99459.29
2022-10-20T05:15:11.066Z,99462.05
2022-10-20T05:16:11.068Z,99463.73
2022-10-20T05:17:11.070Z,99462.18
2022-10-20T05:18:11.066Z,99466.16
2022-10-20T05:19:11.075Z,99462.90
2022-10-20T05:20:11.076Z,99459.02
2022-10-20T05:21:19.068Z,99460.86
2022-10-20T05:22:11.065Z,99459.94
2022-10-20T05:23:11.067Z,99456.65
2022-10-20T05:24:16.804Z,99456.24
2022-10-20T05:25:35.005Z,99460.46
2022-10-20T05:26:16.061Z,99461.05
2022-10-20T05:27:11.067Z,99461.36
2022-10-20T05:28:11.081Z,99463.24
2022-10-20T05:29:11.068Z,99458.60
2022-10-20T05:30:11.062Z,99456.96
2022-10-20T05:31:11.067Z,99453.63
2022-10-20T05:32:11.073Z,99450.88
2022-10-20T05:33:11.062Z,99444.07
2022-10-20T05:34:11.070Z,99445.96
2022-10-20T05:35:11.066Z,99440.09
2022-10-20T05:36:13.860Z,99436.42
2022-10-20T05:37:11.067Z,99434.75
2022-10-20T05:38:11.069Z,99435.31
2022-10-20T05:39:11.065Z,99433.62
2022-10-20T05:40:11.069Z,99430.07
2022-10-20T05:41:18.077Z,99429.75
2022-10-20T05:42:11.071Z,99428.11
2022-10-20T05:43:11.065Z,99426.15
2022-10-20T05:44:12.075Z,99423.74
2022-10-20T05:45:11.069Z,99424.79
2022-10-20T05:46:11.068Z,99419.52
2022-10-20T05:47:11.068Z,99420.18
2022-10-20T05:48:11.078Z,99418.13
2022-10-20T05:49:15.066Z,99423.36
2022-10-20T05:50:11.071Z,99417.20
2022-10-20T05:51:18.082Z,99419.31
2022-10-20T05:52:11.070Z,99414.46
2022-10-20T05:53:11.072Z,99415.79
2022-10-20T05:54:12.079Z,99416.35
2022-10-20T05:55:11.071Z,99415.39
2022-10-20T05:56:11.068Z,99419.20
2022-10-20T05:57:11.070Z,99414.21
2022-10-20T05:58:11.079Z,99414.77
2022-10-20T05:59:11.072Z,99413.98
2022-10-20T06:00:11.072Z,99417.45
2022-10-20T06:01:11.079Z,99422.21
2022-10-20T06:02:12.103Z,99420.67
2022-10-20T06:03:12.319Z,99420.42
2022-10-20T06:04:11.080Z,99419.34
2022-10-20T06:05:11.072Z,99420.14
2022-10-20T06:06:11.070Z,99418.13
2022-10-20T06:07:11.070Z,99416.63
2022-10-20T06:08:11.072Z,99413.21
2022-10-20T06:09:11.068Z,99413.73
2022-10-20T06:10:11.072Z,99411.16
2022-10-20T06:11:11.080Z,99410.93
2022-10-20T06:12:11.079Z,99412.11
2022-10-20T06:13:11.075Z,99414.91
2022-10-20T06:14:11.083Z,99414.82
2022-10-20T06:15:11.076Z,99415.65
2022-10-20T06:16:12.069Z,99413.82
2022-10-20T06:17:11.074Z,99411.24
2022-10-20T06:18:11.075Z,99410.97
2022-10-20T06:19:11.072Z,99410.09
2022-10-20T06:20:11.071Z,99409.42
2022-10-20T06:21:13.056Z,99409.67
2022-10-20T06:22:11.055Z,99407.76
2022-10-20T06:23:11.055Z,99410.74
2022-10-20T06:24:11.065Z,99413.50
2022-10-20T06:25:11.055Z,99417.07
2022-10-20T06:26:11.056Z,99412.15
2022-10-20T06:27:11.062Z,99413.59
2022-10-20T06:28:11.059Z,99415.98
2022-10-20T06:29:12.053Z,99410.80
2022-10-20T06:30:11.058Z,99411.71
2022-10-20T06:31:16.055Z,99408.61
2022-10-20T06:32:11.106Z,99406.87
2022-10-20T06:33:11.056Z,99404.76
2022-10-20T06:34:13.057Z,99405.45
2022-10-20T06:35:11.054Z,99406.25
2022-10-20T06:36:11.057Z,99410.07
2022-10-20T06:37:11.063Z,99408.66
2022-10-20T06:38:11.061Z,99410.19
2022-10-20T06:39:12.059Z,99407.15
2022-10-20T06:40:11.062Z,99405.94
2022-10-20T06:41:12.058Z,99408.74
2022-10-20T06:42:12.216Z,99409.08
2022-10-20T06:43:11.060Z,99411.30
2022-10-20T06:44:11.060Z,99413.79
2022-10-20T06:45:12.301Z,99409.81
2022-10-20T06:46:12.056Z,99407.11
2022-10-20T06:47:14.058Z,99404.57
2022-10-20T06:48:11.061Z,99403.61
2022-10-20T06:49:11.059Z,99400.45
2022-10-20T06:50:11.068Z,99402.13
2022-10-20T06:51:12.075Z,99401.66
2022-10-20T06:53:11.067Z,99397.38
2022-10-20T06:54:11.061Z,99395.56
2022-10-20T06:55:11.055Z,99393.50
2022-10-20T06:56:17.067Z,99393.91
2022-10-20T06:57:11.060Z,99392.44
2022-10-20T06:58:11.058Z,99392.56
2022-10-20T06:59:11.060Z,99393.42
2022-10-20T07:00:11.062Z,99393.30
2022-10-20T07:01:17.145Z,99392.89
2022-10-20T07:02:12.189Z,99390.06
2022-10-20T07:03:11.071Z,99386.80
2022-10-20T07:04:13.061Z,99388.08
2022-10-20T07:05:11.059Z,99383.03
2022-10-20T07:06:15.063Z,99380.17
2022-10-20T07:07:11.061Z,99377.97
2022-10-20T07:08:11.057Z,99378.81
2022-10-20T07:09:13.110Z,99378.39
2022-10-20T07:10:11.061Z,99378.60
2022-10-20T07:11:17.069Z,99374.81
2022-10-20T07:12:11.059Z,99374.33
2022-10-20T07:13:11.062Z,99370.79
2022-10-20T07:14:11.057Z,99369.57
2022-10-20T07:15:11.062Z,99364.99
2022-10-20T07:16:13.076Z,99366.30
2022-10-20T07:17:11.059Z,99362.45
2022-10-20T07:18:11.064Z,99361.29
2022-10-20T07:19:11.073Z,99359.34
2022-10-20T07:20:11.077Z,99356.60
2022-10-20T07:21:12.055Z,99360.38
2022-10-20T07:22:11.062Z,99358.91
2022-10-20T07:23:11.060Z,99358.39
2022-10-20T07:24:11.056Z,99356.57
2022-10-20T07:25:11.063Z,99357.04
2022-10-20T07:26:14.059Z,99359.14
2022-10-20T07:27:11.058Z,99359.08
2022-10-20T07:28:11.059Z,99360.26
2022-10-20T07:29:11.061Z,99360.31
2022-10-20T07:30:11.058Z,99360.80
2022-10-20T07:31:14.067Z,99357.94
2022-10-20T07:32:11.061Z,99358.34
2022-10-20T07:33:11.059Z,99355.81
2022-10-20T07:34:25.088Z,99355.25
2022-10-20T07:35:13.210Z,99354.10
2022-10-20T07:36:20.059Z,99351.68
2022-10-20T07:37:11.057Z,99353.39
2022-10-20T07:38:11.064Z,99353.36
2022-10-20T07:39:11.061Z,99351.54
2022-10-20T07:40:11.132Z,99350.84
2022-10-20T07:41:11.069Z,99347.95
2022-10-20T07:42:11.064Z,99347.00
2022-10-20T07:43:11.063Z,99347.05
2022-10-20T07:44:11.064Z,99345.73
2022-10-20T07:45:11.063Z,99345.57
2022-10-20T07:46:11.059Z,99344.60
2022-10-20T07:47:11.064Z,99344.02
2022-10-20T07:48:11.063Z,99343.18
2022-10-20T07:49:43.996Z,99342.71
2022-10-20T07:50:13.120Z,99345.70
2022-10-20T07:51:19.067Z,99344.45
2022-10-20T07:52:11.064Z,99344.41
2022-10-20T07:53:11.061Z,99347.21
2022-10-20T07:54:11.062Z,99346.72
2022-10-20T07:55:25.344Z,99343.90
2022-10-20T07:56:13.078Z,99347.14
2022-10-20T07:57:11.069Z,99346.93
2022-10-20T07:58:11.070Z,99346.34
2022-10-20T07:59:11.066Z,99345.30
2022-10-20T08:00:11.063Z,99343.43
2022-10-20T08:01:11.066Z,99343.26
2022-10-20T08:02:11.197Z,99342.17
2022-10-20T08:03:11.065Z,99346.69
2022-10-20T08:04:11.080Z,99346.11
2022-10-20T08:05:11.068Z,99345.82
2022-10-20T08:06:11.073Z,99345.88
2022-10-20T08:07:11.064Z,99343.94
2022-10-20T08:08:11.065Z,99343.73
2022-10-20T08:09:11.063Z,99347.54
2022-10-20T08:10:11.064Z,99345.01
2022-10-20T08:11:11.072Z,99349.60
2022-10-20T08:12:11.063Z,99350.29
2022-10-20T08:13:11.068Z,99348.82
2022-10-20T08:14:11.073Z,99348.37
2022-10-20T08:15:11.068Z,99347.45
2022-10-20T08:16:11.075Z,99347.02
2022-10-20T08:17:11.074Z,99349.04
2022-10-20T08:18:11.072Z,99344.48
2022-10-20T08:19:11.072Z,99346.13
2022-10-20T08:20:11.076Z,99345.23
2022-10-20T08:21:15.059Z,99342.94
2022-10-20T08:22:11.057Z,99341.65
2022-10-20T08:23:11.059Z,99343.73
2022-10-20T08:24:11.060Z,99342.88
2022-10-20T08:25:13.058Z,99342.19
2022-10-20T08:26:11.636Z,99345.25
2022-10-20T08:27:11.066Z,99342.74
2022-10-20T08:28:11.070Z,99346.39
2022-10-20T08:29:11.059Z,99341.57
2022-10-20T08:30:23.355Z,99346.74
2022-10-20T08:31:13.079Z,99345.00
2022-10-20T08:32:11.061Z,99341.39
2022-10-20T08:33:11.070Z,99343.79
2022-10-20T08:34:11.059Z,99342.04
2022-10-20T08:35:11.062Z,99340.86
2022-10-20T08:36:11.067Z,99342.00
2022-10-20T08:37:11.142Z,99342.45
2022-10-20T08:38:11.061Z,99341.59
2022-10-20T08:39:12.070Z,99344.94
2022-10-20T08:40:16.068Z,99338.00
2022-10-20T08:41:16.059Z,99335.53
2022-10-20T08:42:11.062Z,99334.64
2022-10-20T08:43:17.070Z,99331.70
2022-10-20T08:44:15.066Z,99330.16
2022-10-20T08:45:15.060Z,99331.25
2022-10-20T08:46:15.126Z,99327.57
2022-10-20T08:47:16.070Z,99327.03
2022-10-20T08:48:15.064Z,99322.93
2022-10-20T08:49:19.062Z,99323.39
2022-10-20T08:50:12.065Z,99320.27
2022-10-20T08:51:19.070Z,99317.84
2022-10-20T08:52:16.067Z,99317.67
2022-10-20T08:53:11.060Z,99316.52
2022-10-20T08:54:14.065Z,99314.62
2022-10-20T08:55:16.118Z,99314.67
2022-10-20T08:56:13.062Z,99311.91
2022-10-20T08:57:19.067Z,99310.57
2022-10-20T08:58:19.071Z,99312.71
2022-10-20T08:59:21.069Z,99309.31
2022-10-20T09:00:17.067Z,99308.92
2022-10-20T09:01:19.173Z,99309.00
2022-10-20T09:02:15.148Z,99309.43
2022-10-20T09:03:17.067Z,99304.51
2022-10-20T09:04:18.067Z,99301.53
2022-10-20T09:05:13.950Z,99305.16
2022-10-20T09:06:17.193Z,99303.83
2022-10-20T09:07:21.066Z,99299.11
2022-10-20T09:08:11.073Z,99301.46
2022-10-20T09:09:14.133Z,99300.72
2022-10-20T09:10:19.068Z,99301.02
2022-10-20T09:11:15.065Z,99298.16
2022-10-20T09:12:12.072Z,99298.56
2022-10-20T09:13:19.068Z,99298.16
2022-10-20T09:14:11.063Z,99292.86
2022-10-20T09:15:13.068Z,99295.15
2022-10-20T09:16:27.255Z,99290.29
2022-10-20T09:17:18.115Z,99288.75
2022-10-20T09:18:13.067Z,99291.99
2022-10-20T09:19:18.077Z,99290.00
2022-10-20T09:20:19.121Z,99284.05
2022-10-20T09:21:19.060Z,99282.36
2022-10-20T09:22:11.074Z,99281.40
2022-10-20T09:23:39.419Z,99283.03
2022-10-20T09:24:13.083Z,99285.55
2022-10-20T09:30:21.065Z,99269.98
2022-10-20T09:31:19.062Z,99271.21
2022-10-20T09:33:21.062Z,99267.97
2022-10-20T09:34:19.062Z,99269.76
2022-10-20T09:35:19.069Z,99266.66
2022-10-20T09:36:15.063Z,99260.41
2022-10-20T09:37:17.059Z,99263.92
2022-10-20T09:38:18.058Z,99259.04
2022-10-20T09:39:18.064Z,99257.31
2022-10-20T09:40:15.092Z,99258.69
2022-10-20T09:41:21.062Z,99253.26
2022-10-20T09:42:15.060Z,99252.82
2022-10-20T09:43:15.066Z,99248.77
2022-10-20T09:44:16.105Z,99247.12
2022-10-20T09:45:19.065Z,99250.44
2022-10-20T09:46:11.067Z,99250.44
2022-10-20T09:47:14.070Z,99249.54
2022-10-20T09:48:21.073Z,99248.95
2022-10-20T09:49:17.063Z,99248.43
2022-10-20T09:50:17.062Z,99246.52
2022-10-20T09:51:16.061Z,99246.64
2022-10-20T09:52:16.076Z,99244.88
2022-10-20T09:53:19.065Z,99248.79
2022-10-20T09:54:18.066Z,99245.89
2022-10-20T09:55:19.062Z,99245.61
2022-10-20T09:56:11.072Z,99247.91
2022-10-20T09:57:18.071Z,99244.96
2022-10-20T09:58:19.065Z,99244.92
2022-10-20T09:59:19.066Z,99244.95
2022-10-20T10:00:35.851Z,99241.04
2022-10-20T10:01:18.107Z,99241.04
2022-10-20T10:02:19.078Z,99242.07
2022-10-20T10:03:18.067Z,99239.49
2022-10-20T10:04:19.066Z,99238.61
2022-10-20T10:05:15.063Z,99234.00
2022-10-20T10:06:19.073Z,99237.10
2022-10-20T10:07:21.068Z,99238.09
2022-10-20T10:08:15.074Z,99236.50
2022-10-20T10:09:19.102Z,99236.88
2022-10-20T10:10:21.071Z,99235.20
2022-10-20T10:11:15.065Z,99233.18
2022-10-20T10:12:18.075Z,99234.65
2022-10-20T10:13:21.162Z,99230.73
2022-10-20T10:14:19.066Z,99231.34
2022-10-20T10:15:19.071Z,99229.74
2022-10-20T10:16:12.066Z,99229.27
2022-10-20T10:17:11.069Z,99224.38
2022-10-20T10:18:15.066Z,99229.10
2022-10-20T10:19:17.069Z,99229.24
2022-10-20T10:20:19.087Z,99229.40
2022-10-20T10:21:14.070Z,99227.00
2022-10-20T10:22:14.059Z,99226.61
2022-10-20T10:23:19.058Z,99226.71
2022-10-20T10:24:19.069Z,99225.46
2022-10-20T10:25:19.059Z,99225.26
2022-10-20T10:26:19.057Z,99225.22
2022-10-20T10:27:19.059Z,99226.89
2022-10-20T10:28:20.147Z,99227.57
2022-10-20T10:29:18.067Z,99226.01
2022-10-20T10:30:21.060Z,99225.74
2022-10-20T10:31:21.061Z,99227.87
2022-10-20T10:32:19.059Z,99226.67
2022-10-20T10:33:19.063Z,99224.80
2022-10-20T10:34:19.058Z,99224.08
2022-10-20T10:35:19.070Z,99224.52
2022-10-20T10:36:21.066Z,99225.35
2022-10-20T10:37:13.152Z,99222.28
2022-10-20T10:38:11.063Z,99219.57
2022-10-20T10:39:14.066Z,99221.82
2022-10-20T10:40:16.071Z,99219.49
2022-10-20T10:41:19.068Z,99221.46
2022-10-20T10:42:21.066Z,99221.98
2022-10-20T10:43:19.065Z,99225.49
2022-10-20T10:44:21.068Z,99226.56
2022-10-20T10:45:19.072Z,99225.86
2022-10-20T10:46:16.063Z,99229.17
2022-10-20T10:47:19.076Z,99224.00
2022-10-20T10:48:19.060Z,99229.58
2022-10-20T10:49:21.062Z,99229.18
2022-10-20T10:50:19.068Z,99227.53
2022-10-20T10:51:21.076Z,99228.32
2022-10-20T10:52:19.064Z,99227.94
2022-10-20T10:53:19.064Z,99229.19
2022-10-20T10:54:19.066Z,99225.07
2022-10-20T10:55:43.594Z,99225.89
2022-10-20T10:56:21.101Z,99226.87
2022-10-20T10:57:21.074Z,99229.13
2022-10-20T10:58:19.069Z,99228.30
2022-10-20T10:59:21.059Z,99226.68
2022-10-20T11:00:18.063Z,99225.94
2022-10-20T11:01:19.148Z,99226.76
2022-10-20T11:02:19.063Z,99226.35
2022-10-20T11:03:23.062Z,99227.18
2022-10-20T11:04:19.065Z,99225.74
2022-10-20T11:05:19.070Z,99225.61
2022-10-20T11:06:19.067Z,99225.60
2022-10-20T11:07:21.072Z,99227.76
2022-10-20T11:08:19.065Z,99226.76
2022-10-20T11:09:21.064Z,99227.17
2022-10-20T11:10:19.064Z,99230.16
2022-10-20T11:11:21.066Z,99226.30
2022-10-20T11:12:21.068Z,99227.90
2022-10-20T11:13:22.967Z,99228.08
2022-10-20T11:14:23.085Z,99233.44
2022-10-20T11:15:19.067Z,99230.40
2022-10-20T11:16:19.064Z,99234.03
2022-10-20T11:17:19.073Z,99230.52
2022-10-20T11:18:21.074Z,99232.93
2022-10-20T11:19:19.066Z,99230.93
2022-10-20T11:20:19.068Z,99231.55
2022-10-20T11:21:19.061Z,99231.80
2022-10-20T11:22:19.062Z,99229.43
2022-10-20T11:23:19.072Z,99229.24
2022-10-20T11:24:21.067Z,99226.88
2022-10-20T11:25:19.058Z,99228.47
2022-10-20T11:26:23.145Z,99231.07
2022-10-20T11:27:15.061Z,99225.62
2022-10-20T11:28:21.068Z,99227.40
2022-10-20T11:29:17.062Z,99224.86
2022-10-20T11:30:15.073Z,99223.62
2022-10-20T11:31:17.059Z,99229.32
2022-10-20T11:32:19.070Z,99228.35
2022-10-20T11:33:16.062Z,99227.16
2022-10-20T11:34:19.057Z,99227.16
2022-10-20T11:35:19.061Z,99227.13
2022-10-20T11:36:18.068Z,99226.55
2022-10-20T11:37:19.063Z,99222.39
2022-10-20T11:38:21.060Z,99224.27
2022-10-20T11:39:17.058Z,99220.05
2022-10-20T11:40:21.064Z,99215.57
2022-10-20T11:41:19.116Z,99214.64
2022-10-20T11:42:21.063Z,99210.47
2022-10-20T11:43:20.063Z,99214.44
2022-10-20T11:44:19.060Z,99215.01
2022-10-20T11:45:19.064Z,99214.27
2022-10-20T11:46:17.064Z,99213.86
2022-10-20T11:47:14.064Z,99208.95
2022-10-20T11:48:19.060Z,99208.31
2022-10-20T11:49:11.059Z,99206.08
2022-10-20T11:50:12.238Z,99207.76
2022-10-20T11:51:23.061Z,99209.77
2022-10-20T11:52:21.064Z,99207.90